createdAt,value
2019-03-13T00:01:12.081Z,11.60
2019-03-13T00:03:43.343Z,18.30
2019-03-13T00:06:13.879Z,13.70
2019-03-13T00:08:44.439Z,13.37
2019-03-13T00:11:14.779Z,8.60
2019-03-13T00:13:45.137Z,24.03
2019-03-13T00:16:15.638Z,12.73
2019-03-13T00:18:45.983Z,14.73
2019-03-13T00:21:16.422Z,15.97
2019-03-13T00:23:46.961Z,14.43
2019-03-13T00:26:17.501Z,13.30
2019-03-13T00:28:47.849Z,9.97
2019-03-13T00:31:18.283Z,11.87
2019-03-13T00:33:48.630Z,12.63
2019-03-13T00:36:19.267Z,12.00
2019-03-13T00:38:51.076Z,11.80
2019-03-13T00:41:21.611Z,13.03
2019-03-13T00:43:52.159Z,14.17
2019-03-13T00:46:22.601Z,18.97
2019-03-13T00:48:52.945Z,13.63
2019-03-13T00:51:23.284Z,10.73
2019-03-13T00:53:53.682Z,11.27
2019-03-13T00:56:23.982Z,12.63
2019-03-13T00:58:54.425Z,11.03
2019-03-13T01:01:26.342Z,10.77
2019-03-13T01:04:04.497Z,17.03
2019-03-13T01:06:36.481Z,11.17
2019-03-13T01:09:07.392Z,12.70
2019-03-13T01:11:37.661Z,9.23
2019-03-13T01:14:08.006Z,13.53
2019-03-13T01:16:38.276Z,12.57
2019-03-13T01:19:08.725Z,12.37
2019-03-13T01:21:39.064Z,11.10
2019-03-13T01:24:09.336Z,10.90
2019-03-13T01:26:39.678Z,11.33
2019-03-13T01:29:09.947Z,9.60
2019-03-13T01:31:56.877Z,7.53
2019-03-13T01:34:31.787Z,11.27
2019-03-13T01:37:02.052Z,6.90
2019-03-13T01:39:32.393Z,7.60
2019-03-13T01:42:02.666Z,11.80
2019-03-13T01:44:33.116Z,11.90
2019-03-13T01:47:03.390Z,8.00
2019-03-13T01:49:33.664Z,10.20
2019-03-13T01:52:04.000Z,11.57
2019-03-13T01:54:34.273Z,8.87
2019-03-13T01:57:04.536Z,12.43
2019-03-13T01:59:34.806Z,10.43
2019-03-13T02:02:05.079Z,9.47
2019-03-13T02:04:35.415Z,12.63
2019-03-13T02:07:05.750Z,16.60
2019-03-13T02:09:36.028Z,11.47
2019-03-13T02:12:07.278Z,14.33
2019-03-13T02:14:37.553Z,12.90
2019-03-13T02:17:07.821Z,12.43
2019-03-13T02:19:38.092Z,11.03
2019-03-13T02:22:08.535Z,12.83
2019-03-13T02:24:39.079Z,15.33
2019-03-13T02:27:09.410Z,9.10
2019-03-13T02:29:39.755Z,13.43
2019-03-13T02:32:11.177Z,15.57
2019-03-13T02:34:41.529Z,14.23
2019-03-13T02:37:11.790Z,11.60
2019-03-13T02:39:42.333Z,9.20
2019-03-13T02:42:12.856Z,8.40
2019-03-13T02:44:43.112Z,12.27
2019-03-13T02:47:13.652Z,12.43
2019-03-13T02:49:43.922Z,7.60
2019-03-13T02:52:14.190Z,7.37
2019-03-13T02:54:44.462Z,9.23
2019-03-13T02:57:14.802Z,8.67
2019-03-13T02:59:45.132Z,9.57
2019-03-13T03:02:17.049Z,12.80
2019-03-13T03:04:48.171Z,10.80
2019-03-13T03:07:18.445Z,12.13
2019-03-13T03:09:48.709Z,15.23
2019-03-13T03:12:19.141Z,11.03
2019-03-13T03:15:03.073Z,16.03
2019-03-13T03:17:33.802Z,9.50
2019-03-13T03:20:06.907Z,6.63
2019-03-13T03:22:37.165Z,7.17
2019-03-13T03:25:10.337Z,8.97
2019-03-13T03:27:40.667Z,7.97
2019-03-13T03:30:22.457Z,6.00
2019-03-13T03:32:52.841Z,7.30
2019-03-13T03:35:23.145Z,9.60
2019-03-13T03:37:53.392Z,7.10
2019-03-13T03:40:23.863Z,10.77
2019-03-13T03:42:54.376Z,11.80
2019-03-13T03:45:24.669Z,7.47
2019-03-13T03:47:54.904Z,6.23
2019-03-13T03:50:25.151Z,12.13
2019-03-13T03:52:55.462Z,11.00
2019-03-13T03:55:25.711Z,6.67
2019-03-13T03:57:55.945Z,5.77
2019-03-13T04:00:26.195Z,6.03
2019-03-13T04:02:56.501Z,9.37
2019-03-13T04:05:27.673Z,8.17
2019-03-13T04:07:57.893Z,5.50
2019-03-13T04:10:28.129Z,6.67
2019-03-13T04:12:58.365Z,4.20
2019-03-13T04:15:28.776Z,5.63
2019-03-13T04:17:59.284Z,4.87
2019-03-13T04:20:29.537Z,5.83
2019-03-13T04:22:59.765Z,5.37
2019-03-13T04:25:30.770Z,7.30
2019-03-13T04:28:01.078Z,10.90
2019-03-13T04:30:31.404Z,5.47
2019-03-13T04:33:02.885Z,5.77
2019-03-13T04:35:33.149Z,10.00
2019-03-13T04:38:03.382Z,7.30
2019-03-13T04:40:33.805Z,10.30
2019-03-13T04:43:04.109Z,9.47
2019-03-13T04:45:34.434Z,5.27
2019-03-13T04:48:05.044Z,9.57
2019-03-13T04:50:35.372Z,9.10
2019-03-13T04:53:05.609Z,8.47
2019-03-13T04:55:36.036Z,15.37
2019-03-13T04:58:06.286Z,12.77
2019-03-13T05:00:36.615Z,5.90
2019-03-13T05:03:08.347Z,5.87
2019-03-13T05:05:43.828Z,7.07
2019-03-13T05:08:20.555Z,11.37
2019-03-13T05:10:50.801Z,12.47
2019-03-13T05:13:21.093Z,9.27
2019-03-13T05:15:52.288Z,12.30
2019-03-13T05:18:22.912Z,15.97
2019-03-13T05:20:54.331Z,14.80
2019-03-13T05:23:24.647Z,10.97
2019-03-13T05:25:54.968Z,16.70
2019-03-13T05:28:25.214Z,19.30
2019-03-13T05:30:55.724Z,13.40
2019-03-13T05:33:25.966Z,13.50
2019-03-13T05:35:56.217Z,14.93
2019-03-13T05:38:26.477Z,17.37
2019-03-13T05:40:57.064Z,10.43
2019-03-13T05:43:27.381Z,8.50
2019-03-13T05:45:57.695Z,7.87
2019-03-13T05:48:28.204Z,9.03
2019-03-13T05:50:58.522Z,5.93
2019-03-13T05:53:29.103Z,8.13
2019-03-13T05:55:59.349Z,4.60
2019-03-13T05:58:29.593Z,7.17
2019-03-13T06:00:59.897Z,4.80
2019-03-13T06:03:30.227Z,14.60
2019-03-13T06:06:01.599Z,8.87
2019-03-13T06:08:33.085Z,6.70
2019-03-13T06:11:03.616Z,6.67
2019-03-13T06:13:33.957Z,8.97
2019-03-13T06:16:04.266Z,9.50
2019-03-13T06:18:34.559Z,13.90
2019-03-13T06:21:05.007Z,11.83
2019-03-13T06:23:35.323Z,10.97
2019-03-13T06:26:05.644Z,9.73
2019-03-13T06:28:35.876Z,7.17
2019-03-13T06:31:06.180Z,9.50
2019-03-13T06:33:37.492Z,8.63
2019-03-13T06:36:08.007Z,9.27
2019-03-13T06:38:38.323Z,12.37
2019-03-13T06:41:08.661Z,13.63
2019-03-13T06:43:38.886Z,16.53
2019-03-13T06:46:09.126Z,23.77
2019-03-13T06:48:39.370Z,26.87
2019-03-13T06:51:09.681Z,10.50
2019-03-13T06:53:40.006Z,12.70
2019-03-13T06:56:10.336Z,7.50
2019-03-13T06:58:45.124Z,11.17
2019-03-13T07:01:22.899Z,12.70
2019-03-13T07:04:09.822Z,46.23
2019-03-13T07:06:48.737Z,38.30
2019-03-13T07:09:20.695Z,20.37
2019-03-13T07:11:52.585Z,12.40
2019-03-13T07:14:24.479Z,14.90
2019-03-13T07:16:56.372Z,10.07
2019-03-13T07:19:31.327Z,15.23
2019-03-13T07:22:19.230Z,9.13
2019-03-13T07:24:53.867Z,12.53
2019-03-13T07:27:28.521Z,9.90
2019-03-13T07:30:00.491Z,13.70
2019-03-13T07:32:35.574Z,10.47
2019-03-13T07:35:14.548Z,7.83
2019-03-13T07:37:53.877Z,10.43
2019-03-13T07:40:28.670Z,8.57
2019-03-13T07:43:09.364Z,9.97
2019-03-13T07:45:41.325Z,9.50
2019-03-13T07:48:13.281Z,10.80
2019-03-13T07:50:51.222Z,9.37
2019-03-13T07:53:32.039Z,7.83
2019-03-13T07:56:03.999Z,7.27
2019-03-13T07:58:54.081Z,8.70
2019-03-13T08:01:37.922Z,13.30
2019-03-13T08:04:09.886Z,9.37
2019-03-13T08:06:44.613Z,10.47
2019-03-13T08:09:16.568Z,7.22
2019-03-13T08:11:54.298Z,8.15
2019-03-13T08:14:44.180Z,11.95
2019-03-13T08:17:16.353Z,15.53
2019-03-13T08:19:50.989Z,23.67
2019-03-13T08:22:28.602Z,8.48
2019-03-13T08:25:00.559Z,25.40
2019-03-13T08:27:35.592Z,15.95
2019-03-13T08:30:20.515Z,12.55
2019-03-13T08:32:52.668Z,7.05
2019-03-13T08:35:39.819Z,14.35
2019-03-13T08:38:28.228Z,11.70
2019-03-13T08:41:03.110Z,11.33
2019-03-13T08:43:47.281Z,6.33
2019-03-13T08:46:19.240Z,12.45
2019-03-13T08:48:51.191Z,9.88
2019-03-13T08:51:29.936Z,10.90
2019-03-13T08:54:36.061Z,4.17
2019-03-13T08:57:09.451Z,6.90
2019-03-13T08:59:41.441Z,5.72
2019-03-13T09:02:16.251Z,10.05
2019-03-13T09:04:48.225Z,9.23
2019-03-13T09:07:22.965Z,22.02
2019-03-13T09:10:11.342Z,8.75
2019-03-13T09:12:45.900Z,5.25
2019-03-13T09:15:17.864Z,5.70
2019-03-13T09:17:49.747Z,5.87
2019-03-13T09:20:30.886Z,10.82
2019-03-13T09:23:05.527Z,5.92
2019-03-13T09:25:37.502Z,8.08
2019-03-13T09:28:15.105Z,11.83
2019-03-13T09:31:03.101Z,5.45
2019-03-13T09:33:52.932Z,5.47
2019-03-13T09:36:24.880Z,4.47
2019-03-13T09:39:02.486Z,8.55
2019-03-13T09:41:48.135Z,4.58
2019-03-13T09:44:33.016Z,7.20
2019-03-13T09:47:16.878Z,5.55
2019-03-13T09:49:54.938Z,9.13
2019-03-13T09:52:43.280Z,4.70
2019-03-13T09:55:15.243Z,3.65
2019-03-13T09:57:47.122Z,5.35
2019-03-13T10:00:35.108Z,13.03
2019-03-13T10:03:18.821Z,7.47
2019-03-13T10:05:50.781Z,5.35
2019-03-13T10:08:31.415Z,7.95
2019-03-13T10:11:06.062Z,12.47
2019-03-13T10:13:38.409Z,7.50
2019-03-13T10:16:13.337Z,8.75
2019-03-13T10:18:58.161Z,8.75
2019-03-13T10:21:48.311Z,12.78
2019-03-13T10:24:20.483Z,8.28
2019-03-13T10:26:52.828Z,6.87
2019-03-13T10:29:27.587Z,16.65
2019-03-13T10:32:15.773Z,10.35
2019-03-13T10:34:53.618Z,10.18
2019-03-13T10:37:34.703Z,6.22
2019-03-13T10:40:25.994Z,6.75
2019-03-13T10:42:58.032Z,4.15
2019-03-13T10:45:30.000Z,6.45
2019-03-13T10:48:04.654Z,8.55
2019-03-13T10:50:36.880Z,12.47
2019-03-13T10:53:25.228Z,11.68
2019-03-13T10:56:13.299Z,7.05
2019-03-13T10:58:45.269Z,8.50
2019-03-13T11:01:19.921Z,4.10
2019-03-13T11:04:03.821Z,4.75
2019-03-13T11:06:54.097Z,7.17
2019-03-13T11:09:18.491Z,9.45
2019-03-13T11:12:02.178Z,7.65
2019-03-13T11:14:40.860Z,7.55
2019-03-13T11:17:21.968Z,13.55
2019-03-13T11:19:53.880Z,13.80
2019-03-13T11:22:26.036Z,15.90
2019-03-13T11:25:10.055Z,16.25
2019-03-13T11:27:42.015Z,10.15
2019-03-13T11:30:16.146Z,5.72
2019-03-13T11:32:48.096Z,13.05
2019-03-13T11:35:19.993Z,7.35
2019-03-13T11:37:55.036Z,12.60
2019-03-13T11:40:27.943Z,3.40
2019-03-13T11:43:09.345Z,10.72
2019-03-13T11:45:56.131Z,10.05
2019-03-13T11:48:33.846Z,8.45
2019-03-13T11:51:23.702Z,6.08
2019-03-13T11:54:01.573Z,11.83
2019-03-13T11:56:36.136Z,8.25
2019-03-13T11:59:25.843Z,14.35
2019-03-13T12:01:57.728Z,6.80
2019-03-13T12:04:29.698Z,7.45
2019-03-13T12:07:13.963Z,7.25
2019-03-13T12:10:03.850Z,10.82
2019-03-13T12:12:44.582Z,58.60
2019-03-13T12:15:22.486Z,11.50
2019-03-13T12:17:57.318Z,9.40
2019-03-13T12:20:29.372Z,6.30
2019-03-13T12:23:07.462Z,9.93
2019-03-13T12:25:39.357Z,15.43
2019-03-13T12:28:29.007Z,32.60
2019-03-13T12:31:03.950Z,14.07
2019-03-13T12:33:42.033Z,9.23
2019-03-13T12:36:31.711Z,7.75
2019-03-13T12:39:09.632Z,20.82
2019-03-13T12:41:50.930Z,13.55
2019-03-13T12:44:25.511Z,6.85
2019-03-13T12:47:06.206Z,17.15
2019-03-13T12:49:41.096Z,9.70
2019-03-13T12:52:13.069Z,6.62
2019-03-13T12:54:47.721Z,9.30
2019-03-13T12:57:23.565Z,8.30
2019-03-13T12:59:55.549Z,6.95
2019-03-13T13:02:37.416Z,9.63
2019-03-13T13:05:17.052Z,9.70
2019-03-13T13:07:51.896Z,16.65
2019-03-13T13:10:23.984Z,9.10
2019-03-13T13:13:01.860Z,34.75
2019-03-13T13:15:34.032Z,53.63
2019-03-13T13:18:05.989Z,8.93
2019-03-13T13:20:37.512Z,13.98
2019-03-13T13:23:08.066Z,10.00
2019-03-13T13:25:38.428Z,10.58
2019-03-13T13:28:08.754Z,43.05
2019-03-13T13:30:39.268Z,17.32
2019-03-13T13:33:09.841Z,13.98
2019-03-13T13:35:40.111Z,7.25
2019-03-13T13:38:10.584Z,19.65
2019-03-13T13:40:42.199Z,17.95
2019-03-13T13:43:12.562Z,17.05
2019-03-13T13:45:45.561Z,9.45
2019-03-13T13:48:15.888Z,6.50
2019-03-13T13:50:46.140Z,14.80
2019-03-13T13:53:16.774Z,10.85
2019-03-13T13:55:47.223Z,19.45
2019-03-13T13:58:17.580Z,11.03
2019-03-13T14:00:49.024Z,13.60
2019-03-13T14:03:19.453Z,13.38
2019-03-13T14:05:51.183Z,15.05
2019-03-13T14:08:21.445Z,11.65
2019-03-13T14:10:51.704Z,16.12
2019-03-13T14:13:22.041Z,8.65
2019-03-13T14:15:54.005Z,11.78
2019-03-13T14:18:24.274Z,18.82
2019-03-13T14:20:55.244Z,11.48
2019-03-13T14:23:26.831Z,12.45
2019-03-13T14:25:59.155Z,17.15
2019-03-13T14:28:31.480Z,7.30
2019-03-13T14:31:05.075Z,12.70
2019-03-13T14:33:36.870Z,13.35
2019-03-13T14:36:09.550Z,11.95
2019-03-13T14:38:40.974Z,13.03
2019-03-13T14:41:11.972Z,18.90
2019-03-13T14:43:42.496Z,12.53
2019-03-13T14:46:12.860Z,11.50
2019-03-13T14:48:45.983Z,13.75
2019-03-13T14:51:18.436Z,12.78
2019-03-13T14:53:48.917Z,13.50
2019-03-13T14:56:19.655Z,24.50
2019-03-13T14:58:50.287Z,11.18
2019-03-13T15:01:24.259Z,6.87
2019-03-13T15:03:56.239Z,13.35
2019-03-13T15:06:26.692Z,15.30
2019-03-13T15:08:58.420Z,17.42
2019-03-13T15:11:30.758Z,25.50
2019-03-13T15:14:02.416Z,12.82
2019-03-13T15:16:32.751Z,12.28
2019-03-13T15:19:03.306Z,17.23
2019-03-13T15:21:33.807Z,13.60
2019-03-13T15:24:04.349Z,11.65
2019-03-13T15:26:35.167Z,9.70
2019-03-13T15:29:06.771Z,14.20
2019-03-13T15:31:37.186Z,19.52
2019-03-13T15:34:09.662Z,12.20
2019-03-13T15:36:41.558Z,14.68
2019-03-13T15:39:11.909Z,22.80
2019-03-13T15:41:42.800Z,10.80
2019-03-13T15:44:13.182Z,32.00
2019-03-13T15:46:44.630Z,30.35
2019-03-13T15:49:16.375Z,29.57
2019-03-13T15:51:48.555Z,14.83
2019-03-13T15:54:19.039Z,19.55
2019-03-13T15:56:49.526Z,16.75
2019-03-13T15:59:20.167Z,18.75
2019-03-13T16:01:50.557Z,13.43
2019-03-13T16:04:22.666Z,16.32
2019-03-13T16:06:53.183Z,14.90
2019-03-13T16:09:23.720Z,18.62
2019-03-13T16:11:54.325Z,36.13
2019-03-13T16:14:24.913Z,25.45
2019-03-13T16:16:55.485Z,33.40
2019-03-13T16:19:30.658Z,23.10
2019-03-13T16:22:04.993Z,25.70
2019-03-13T16:24:37.082Z,47.62
2019-03-13T16:27:07.606Z,93.92
2019-03-13T16:29:38.202Z,66.07
2019-03-13T16:32:12.666Z,57.90
2019-03-13T16:34:43.402Z,72.53
2019-03-13T16:37:14.040Z,84.58
2019-03-13T16:39:45.710Z,84.60
2019-03-13T16:42:18.396Z,149.38
2019-03-13T16:44:49.859Z,166.37
2019-03-13T16:47:20.391Z,72.15
2019-03-13T16:49:52.746Z,158.65
2019-03-13T16:52:24.208Z,165.25
2019-03-13T16:54:54.795Z,147.65
2019-03-13T16:57:25.295Z,162.90
2019-03-13T17:00:00.460Z,107.30
2019-03-13T17:02:29.100Z,64.20
2019-03-13T17:05:00.836Z,43.42
2019-03-13T17:07:32.620Z,41.25
2019-03-13T17:10:03.141Z,161.28
2019-03-13T17:12:33.668Z,77.62
2019-03-13T17:15:11.656Z,77.90
2019-03-13T17:17:43.672Z,243.67
2019-03-13T17:20:43.242Z,124.45
2019-03-13T17:23:15.973Z,108.03
2019-03-13T17:25:47.778Z,151.27
2019-03-13T17:28:21.815Z,243.07
2019-03-13T17:30:52.560Z,109.05
2019-03-13T17:33:23.149Z,55.70
2019-03-13T17:35:54.520Z,48.20
2019-03-13T17:38:25.206Z,43.13
2019-03-13T17:40:55.585Z,63.73
2019-03-13T17:43:38.539Z,56.20
2019-03-13T17:45:58.216Z,31.90
2019-03-13T17:48:30.643Z,37.33
2019-03-13T17:51:03.082Z,33.15
2019-03-13T17:53:35.802Z,34.23
2019-03-13T17:56:08.158Z,59.58
2019-03-13T17:58:40.511Z,42.70
2019-03-13T18:01:13.139Z,51.95
2019-03-13T18:03:43.716Z,80.85
2019-03-13T18:06:15.586Z,101.62
2019-03-13T18:08:46.181Z,104.07
2019-03-13T18:11:17.851Z,61.88
2019-03-13T18:13:49.974Z,64.37
2019-03-13T18:16:22.059Z,121.33
2019-03-13T18:18:52.632Z,74.62
2019-03-13T18:21:23.190Z,65.70
2019-03-13T18:23:54.599Z,47.35
2019-03-13T18:26:27.164Z,51.28
2019-03-13T18:28:59.797Z,60.50
2019-03-13T18:31:30.172Z,48.17
2019-03-13T18:34:02.711Z,52.43
2019-03-13T18:36:39.819Z,73.15
2019-03-13T18:39:11.279Z,45.50
2019-03-13T18:41:43.915Z,46.35
2019-03-13T18:44:15.428Z,48.42
2019-03-13T18:46:47.388Z,39.83
2019-03-13T18:49:19.139Z,51.02
2019-03-13T18:51:52.750Z,64.95
2019-03-13T18:54:25.997Z,48.08
2019-03-13T18:56:56.493Z,41.60
2019-03-13T18:59:31.058Z,25.95
2019-03-13T19:02:01.442Z,73.85
2019-03-13T19:04:33.572Z,66.97
2019-03-13T19:07:04.144Z,64.53
2019-03-13T19:09:34.516Z,66.05
2019-03-13T19:12:05.025Z,37.78
2019-03-13T19:14:36.204Z,31.52
2019-03-13T19:17:06.699Z,18.95
2019-03-13T19:19:38.184Z,20.08
2019-03-13T19:22:09.608Z,18.92
2019-03-13T19:24:50.511Z,22.48
2019-03-13T19:27:21.097Z,17.98
2019-03-13T19:29:51.619Z,31.52
2019-03-13T19:32:22.238Z,25.95
2019-03-13T19:34:52.717Z,34.55
2019-03-13T19:37:27.948Z,18.27
2019-03-13T19:39:57.757Z,16.15
2019-03-13T19:42:29.551Z,53.17
2019-03-13T19:45:01.793Z,45.03
2019-03-13T19:47:32.739Z,24.67
2019-03-13T19:50:03.311Z,20.97
2019-03-13T19:52:36.030Z,24.70
2019-03-13T19:55:12.093Z,17.67
2019-03-13T19:57:44.370Z,16.48
2019-03-13T20:00:26.454Z,26.50
2019-03-13T20:03:02.424Z,27.10
2019-03-13T20:05:44.873Z,20.95
2019-03-13T20:08:13.657Z,17.57
2019-03-13T20:10:43.133Z,28.05
2019-03-13T20:13:16.519Z,21.42
2019-03-13T20:15:48.600Z,24.25
2019-03-13T20:18:19.080Z,32.83
2019-03-13T20:20:52.104Z,34.65
2019-03-13T20:23:22.530Z,27.37
2019-03-13T20:25:53.110Z,21.65
2019-03-13T20:28:23.938Z,34.53
2019-03-13T20:30:54.286Z,28.67
2019-03-13T20:33:25.901Z,97.87
2019-03-13T20:35:56.419Z,36.77
2019-03-13T20:38:27.877Z,34.83
2019-03-13T20:40:58.437Z,38.58
2019-03-13T20:43:29.241Z,24.98
2019-03-13T20:45:59.771Z,16.87
2019-03-13T20:48:30.316Z,16.25
2019-03-13T20:51:00.828Z,22.17
2019-03-13T20:53:32.972Z,13.22
2019-03-13T20:56:03.462Z,12.60
2019-03-13T20:58:37.796Z,11.97
2019-03-13T21:01:16.818Z,23.40
2019-03-13T21:03:47.335Z,16.95
2019-03-13T21:06:17.880Z,15.13
2019-03-13T21:08:54.319Z,14.10
2019-03-13T21:11:24.413Z,15.25
2019-03-13T21:13:54.934Z,15.13
2019-03-13T21:16:25.484Z,15.73
2019-03-13T21:18:56.049Z,11.30
2019-03-13T21:21:26.534Z,11.77
2019-03-13T21:23:57.058Z,15.07
2019-03-13T21:26:27.620Z,18.50
2019-03-13T21:28:58.413Z,18.85
2019-03-13T21:31:28.675Z,17.73
2019-03-13T21:33:59.468Z,15.27
2019-03-13T21:36:30.951Z,16.67
2019-03-13T21:39:01.479Z,13.33
2019-03-13T21:41:36.012Z,13.80
2019-03-13T21:44:07.460Z,23.40
2019-03-13T21:46:37.985Z,16.23
2019-03-13T21:49:08.769Z,13.33
2019-03-13T21:51:39.345Z,12.33
2019-03-13T21:54:09.880Z,13.40
2019-03-13T21:56:40.442Z,13.60
2019-03-13T21:59:12.161Z,9.87
2019-03-13T22:01:43.615Z,10.87
2019-03-13T22:04:23.682Z,9.10
2019-03-13T22:06:47.423Z,12.97
2019-03-13T22:09:19.481Z,12.57
2019-03-13T22:11:50.340Z,9.67
2019-03-13T22:14:20.852Z,10.35
2019-03-13T22:16:53.248Z,9.10
2019-03-13T22:19:24.669Z,7.70
2019-03-13T22:21:55.214Z,7.53
2019-03-13T22:24:26.658Z,9.93
2019-03-13T22:26:58.117Z,11.80
2019-03-13T22:29:29.548Z,13.07
2019-03-13T22:32:01.649Z,14.33
2019-03-13T22:34:32.187Z,7.67
2019-03-13T22:37:03.923Z,8.30
2019-03-13T22:39:34.441Z,9.27
2019-03-13T22:42:04.965Z,11.97
2019-03-13T22:44:35.509Z,7.37
2019-03-13T22:47:08.225Z,8.38
2019-03-13T22:49:38.708Z,9.95
2019-03-13T22:52:09.285Z,8.50
2019-03-13T22:54:39.795Z,10.10
2019-03-13T22:57:12.166Z,10.47
2019-03-13T22:59:42.703Z,5.20
2019-03-13T23:02:13.227Z,8.70
2019-03-13T23:04:43.735Z,10.68
2019-03-13T23:07:14.285Z,15.83
2019-03-13T23:09:44.787Z,12.97
2019-03-13T23:12:15.327Z,12.00
2019-03-13T23:14:46.772Z,8.23
2019-03-13T23:17:18.239Z,10.23
2019-03-13T23:19:49.667Z,14.93
2019-03-13T23:22:19.926Z,15.53
2019-03-13T23:24:51.361Z,10.32
2019-03-13T23:27:21.898Z,11.97
2019-03-13T23:29:52.409Z,11.70
2019-03-13T23:32:23.870Z,8.00
2019-03-13T23:34:54.386Z,9.33
2019-03-13T23:37:25.839Z,10.97
2019-03-13T23:39:56.366Z,11.20
2019-03-13T23:42:27.847Z,10.58
2019-03-13T23:44:59.265Z,12.17
2019-03-13T23:47:29.801Z,10.37
2019-03-13T23:50:00.483Z,15.27
2019-03-13T23:52:32.403Z,15.97
2019-03-13T23:55:02.922Z,21.23
2019-03-13T23:57:33.450Z,16.73
